| time (UTC) | temp F | wind direction | speed knots | gust knots | rain 1hr in | rain 24hr in | rain mn in | humidity % | barometer mb |
| 20260505064015 | 67 | 176 | 0.0 | 0.0 | 0.00 | 0.00 | 0.00 | 85 | 1016.1 |
| 20260505063512 | 67 | 161 | 0.0 | 0.0 | 0.00 | 0.00 | 0.00 | 85 | 1016.0 |
| 20260505063008 | 67 | 205 | 0.0 | 0.0 | 0.00 | 0.00 | 0.00 | 85 | 1015.8 |
| 20260505062505 | 67 | 178 | 0.0 | 0.0 | 0.00 | 0.00 | 0.00 | 85 | 1015.8 |
| 20260505062002 | 67 | 177 | 0.0 | 0.0 | 0.00 | 0.00 | 0.00 | 85 | 1016.3 |
| 20260505061500 | 67 | 177 | 0.0 | 0.0 | 0.00 | 0.00 | 0.00 | 84 | 1016.5 |
| 20260505060957 | 67 | 177 | 0.0 | 0.0 | 0.00 | 0.00 | 0.00 | 84 | 1016.8 |
| 20260505060455 | 68 | 177 | 0.0 | 0.0 | 0.00 | 0.00 | 0.00 | 84 | 1016.6 |
| 20260505055951 | 68 | 178 | 0.0 | 0.0 | 0.00 | 0.00 | 0.00 | 84 | 1016.7 |
| 20260505055447 | 68 | 177 | 0.0 | 0.0 | 0.00 | 0.00 | 0.00 | 83 | 1016.6 |
| 20260505054944 | 68 | 177 | 0.0 | 0.0 | 0.00 | 0.00 | 0.00 | 83 | 1016.6 |
| 20260505054441 | 68 | 177 | 0.0 | 0.0 | 0.00 | 0.00 | 0.00 | 83 | 1016.7 |
| 20260505053939 | 68 | 178 | 0.0 | 0.0 | 0.00 | 0.00 | 0.00 | 82 | 1016.8 |
| 20260505053436 | 68 | 177 | 0.0 | 0.0 | 0.00 | 0.00 | 0.00 | 82 | 1016.8 |
| 20260505052932 | 69 | 177 | 0.0 | 0.0 | 0.00 | 0.00 | 0.00 | 81 | 1016.9 |
| 20260505052430 | 69 | 177 | 0.0 | 0.0 | 0.00 | 0.00 | 0.00 | 81 | 1016.8 |
| 20260505051927 | 69 | 177 | 0.0 | 0.0 | 0.00 | 0.00 | 0.00 | 80 | 1016.9 |
| 20260505051424 | 69 | 183 | 0.0 | 0.0 | 0.00 | 0.00 | 0.00 | 80 | 1017.1 |
| 20260505050922 | 69 | 183 | 0.0 | 0.0 | 0.00 | 0.00 | 0.00 | 79 | 1017.1 |
| 20260505050420 | 70 | 183 | 0.0 | 0.0 | 0.00 | 0.00 | 0.00 | 79 | 1017.3 |
| 20260505041347 | 71 | 179 | 0.0 | 0.9 | 0.00 | 0.00 | 0.00 | 75 | 1017.4 |
| 20260505040844 | 71 | 164 | 0.0 | 0.0 | 0.00 | 0.00 | 0.00 | 75 | 1017.4 |
| 20260505040342 | 72 | 164 | 0.0 | 0.9 | 0.00 | 0.00 | 0.00 | 74 | 1017.3 |
| 20260505035839 | 72 | 172 | 1.7 | 1.7 | 0.00 | 0.00 | 0.00 | 73 | 1017.3 |
| 20260505035334 | 72 | 225 | 1.7 | 2.6 | 0.00 | 0.00 | 0.00 | 73 | 1017.3 |
| 20260505034832 | 72 | 99 | 0.9 | 1.7 | 0.00 | 0.00 | 0.00 | 72 | 1017.3 |
| 20260505034328 | 72 | 227 | 1.7 | 2.6 | 0.00 | 0.00 | 0.00 | 71 | 1017.4 |
| 20260505033826 | 73 | 171 | 1.7 | 1.7 | 0.00 | 0.00 | 0.00 | 71 | 1017.5 |
| 20260505033322 | 73 | 167 | 0.9 | 0.9 | 0.00 | 0.00 | 0.00 | 71 | 1017.4 |
| 20260505032821 | 73 | 169 | 0.0 | 0.9 | 0.00 | 0.00 | 0.00 | 71 | 1017.4 |
| 20260505032316 | 73 | 163 | 0.0 | 0.0 | 0.00 | 0.00 | 0.00 | 71 | 1017.3 |
| 20260505031814 | 73 | 162 | 0.0 | 0.0 | 0.00 | 0.00 | 0.00 | 71 | 1017.5 |
| 20260505031310 | 73 | 80 | 1.7 | 1.7 | 0.00 | 0.00 | 0.00 | 71 | 1017.3 |
| 20260505030808 | 73 | 283 | 0.9 | 0.9 | 0.00 | 0.00 | 0.00 | 71 | 1017.5 |
| 20260505030304 | 73 | 17 | 1.7 | 2.6 | 0.00 | 0.00 | 0.00 | 71 | 1017.3 |
| 20260505025759 | 73 | 163 | 0.0 | 0.9 | 0.00 | 0.00 | 0.00 | 71 | 1017.6 |
| 20260505025257 | 73 | 174 | 0.0 | 0.9 | 0.00 | 0.00 | 0.00 | 70 | 1017.5 |
| 20260505024755 | 73 | 173 | 2.6 | 2.6 | 0.00 | 0.00 | 0.00 | 70 | 1017.6 |
| 20260505024252 | 73 | 118 | 0.0 | 0.9 | 0.00 | 0.00 | 0.00 | 70 | 1017.5 |
| 20260505023749 | 73 | 162 | 0.0 | 0.0 | 0.00 | 0.00 | 0.00 | 70 | 1017.2 |
| 20260505023246 | 73 | 186 | 1.7 | 2.6 | 0.00 | 0.00 | 0.00 | 69 | 1017.1 |
| 20260505022744 | 74 | 168 | 1.7 | 3.5 | 0.00 | 0.00 | 0.00 | 69 | 1017.3 |
| 20260505022241 | 74 | 160 | 0.9 | 1.7 | 0.00 | 0.00 | 0.00 | 69 | 1017.1 |
| 20260505021737 | 74 | 179 | 0.9 | 0.9 | 0.00 | 0.00 | 0.00 | 68 | 1017.0 |
| 20260505021234 | 74 | 147 | 0.0 | 0.0 | 0.00 | 0.00 | 0.00 | 68 | 1017.1 |
| 20260505020730 | 75 | 186 | 1.7 | 1.7 | 0.00 | 0.00 | 0.00 | 67 | 1017.1 |
| 20260505020225 | 75 | 184 | 1.7 | 3.5 | 0.00 | 0.00 | 0.00 | 67 | 1017.2 |
| 20260505015723 | 75 | 219 | 1.7 | 2.6 | 0.00 | 0.00 | 0.00 | 67 | 1017.0 |
| 20260505015220 | 75 | 195 | 1.7 | 1.7 | 0.00 | 0.00 | 0.00 | 66 | 1016.9 |
| 20260505014717 | 75 | 175 | 1.7 | 2.6 | 0.00 | 0.00 | 0.00 | 66 | 1016.9 |
| 20260505014214 | 75 | 182 | 0.0 | 0.9 | 0.00 | 0.00 | 0.00 | 66 | 1016.8 |
| 20260505013710 | 75 | 161 | 0.0 | 0.9 | 0.00 | 0.00 | 0.00 | 66 | 1016.7 |
| 20260505013208 | 75 | 173 | 0.9 | 0.9 | 0.00 | 0.00 | 0.00 | 66 | 1016.7 |
| 20260505012706 | 76 | 154 | 3.5 | 5.2 | 0.00 | 0.00 | 0.00 | 65 | 1016.4 |
| 20260505012203 | 76 | 171 | 0.9 | 0.9 | 0.00 | 0.00 | 0.00 | 65 | 1016.5 |
| 20260505011659 | 76 | 164 | 1.7 | 2.6 | 0.00 | 0.00 | 0.00 | 65 | 1016.7 |
| 20260505011156 | 76 | 162 | 0.9 | 0.9 | 0.00 | 0.00 | 0.00 | 65 | 1016.3 |
| 20260505010651 | 76 | 176 | 0.0 | 0.9 | 0.00 | 0.00 | 0.00 | 65 | 1016.4 |
| 20260505010148 | 76 | 196 | 0.0 | 0.9 | 0.00 | 0.00 | 0.00 | 64 | 1016.3 |
| 20260505005645 | 77 | 224 | 2.6 | 2.6 | 0.00 | 0.00 | 0.00 | 64 | 1016.2 |
| 20260505005142 | 77 | 172 | 1.7 | 1.7 | 0.00 | 0.00 | 0.00 | 64 | 1015.9 |
| 20260505004639 | 77 | 177 | 0.0 | 0.0 | 0.00 | 0.00 | 0.00 | 63 | 1015.9 |
| 20260505004135 | 77 | 161 | 0.9 | 0.9 | 0.00 | 0.00 | 0.00 | 63 | 1015.9 |
| 20260505003632 | 77 | 162 | 0.9 | 1.7 | 0.00 | 0.00 | 0.00 | 62 | 1015.7 |
| 20260505003130 | 77 | 257 | 2.6 | 5.2 | 0.00 | 0.00 | 0.00 | 62 | 1015.6 |
| 20260505002626 | 78 | 177 | 0.0 | 0.9 | 0.00 | 0.00 | 0.00 | 61 | 1015.5 |
| 20260505002124 | 78 | 175 | 0.0 | 0.0 | 0.00 | 0.00 | 0.00 | 60 | 1015.7 |
| 20260505001621 | 78 | 178 | 1.7 | 1.7 | 0.00 | 0.00 | 0.00 | 60 | 1015.6 |
| 20260505001119 | 78 | 171 | 0.0 | 0.0 | 0.00 | 0.00 | 0.00 | 59 | 1015.9 |
| 20260505000615 | 78 | 178 | 1.7 | 1.7 | 0.00 | 0.00 | 0.00 | 58 | 1015.6 |
| 20260505000114 | 78 | 182 | 2.6 | 2.6 | 0.00 | 0.00 | 0.00 | 58 | 1015.4 |
| 20260504235609 | 79 | 131 | 3.5 | 5.2 | 0.00 | 0.00 | 0.00 | 58 | 1015.3 |
| 20260504235106 | 79 | 200 | 1.7 | 5.2 | 0.00 | 0.00 | 0.00 | 58 | 1015.2 |
| 20260504234603 | 79 | 178 | 0.0 | 0.9 | 0.00 | 0.00 | 0.00 | 57 | 1015.1 |
| 20260504234100 | 79 | 160 | 5.2 | 7.8 | 0.00 | 0.00 | 0.00 | 56 | 1015.0 |
| 20260504233555 | 80 | 281 | 2.6 | 3.5 | 0.00 | 0.00 | 0.00 | 56 | 1015.0 |
| 20260504233052 | 80 | 134 | 3.5 | 5.2 | 0.00 | 0.00 | 0.00 | 55 | 1015.1 |
| 20260504232549 | 80 | 176 | 1.7 | 2.6 | 0.00 | 0.00 | 0.00 | 54 | 1015.0 |
| 20260504232047 | 80 | 261 | 4.3 | 6.1 | 0.00 | 0.00 | 0.00 | 53 | 1015.0 |
| 20260504231543 | 81 | 156 | 0.0 | 0.9 | 0.00 | 0.00 | 0.00 | 52 | 1014.9 |
| 20260504231039 | 81 | 173 | 0.0 | 0.9 | 0.00 | 0.00 | 0.00 | 52 | 1014.8 |
| 20260504230535 | 81 | 184 | 3.5 | 5.2 | 0.00 | 0.00 | 0.00 | 51 | 1014.8 |
| 20260504230035 | 82 | 170 | 0.0 | 0.0 | 0.00 | 0.00 | 0.00 | 50 | 1014.9 |
| 20260504225531 | 82 | 172 | 2.6 | 2.6 | 0.00 | 0.00 | 0.00 | 49 | 1014.9 |
| 20260504225028 | 83 | 347 | 2.6 | 3.5 | 0.00 | 0.00 | 0.00 | 48 | 1014.7 |
| 20260504224525 | 83 | 71 | 0.9 | 2.6 | 0.00 | 0.00 | 0.00 | 47 | 1014.9 |
| 20260504224022 | 83 | 131 | 1.7 | 1.7 | 0.00 | 0.00 | 0.00 | 48 | 1014.7 |
| 20260504223519 | 83 | 160 | 0.0 | 0.9 | 0.00 | 0.00 | 0.00 | 47 | 1014.7 |
| 20260504223015 | 83 | 163 | 1.7 | 2.6 | 0.00 | 0.00 | 0.00 | 47 | 1014.7 |
| 20260504222512 | 83 | 288 | 1.7 | 2.6 | 0.00 | 0.00 | 0.00 | 46 | 1014.7 |
| 20260504222009 | 83 | 162 | 0.0 | 0.9 | 0.00 | 0.00 | 0.00 | 45 | 1014.9 |
| 20260504221506 | 83 | 180 | 0.9 | 0.9 | 0.00 | 0.00 | 0.00 | 44 | 1015.0 |
| 20260504221003 | 83 | 258 | 0.9 | 1.7 | 0.00 | 0.00 | 0.00 | 44 | 1015.0 |
| 20260504220500 | 83 | 186 | 1.7 | 1.7 | 0.00 | 0.00 | 0.00 | 44 | 1015.0 |
| 20260504215956 | 83 | 233 | 1.7 | 1.7 | 0.00 | 0.00 | 0.00 | 43 | 1015.0 |
| 20260504215453 | 83 | 179 | 1.7 | 2.6 | 0.00 | 0.00 | 0.00 | 43 | 1014.9 |
| 20260504214950 | 84 | 271 | 5.2 | 7.0 | 0.00 | 0.00 | 0.00 | 42 | 1015.0 |
| 20260504214446 | 83 | 192 | 0.9 | 1.7 | 0.00 | 0.00 | 0.00 | 43 | 1014.7 |
| 20260504213943 | 83 | 197 | 1.7 | 2.6 | 0.00 | 0.00 | 0.00 | 44 | 1014.8 |
| 20260504213438 | 83 | 191 | 0.9 | 0.9 | 0.00 | 0.00 | 0.00 | 44 | 1014.8 |
| 20260504212937 | 83 | 309 | 0.9 | 1.7 | 0.00 | 0.00 | 0.00 | 43 | 1015.0 |
| 20260504212432 | 83 | 180 | 1.7 | 2.6 | 0.00 | 0.00 | 0.00 | 43 | 1015.0 |
| 20260504211930 | 84 | 172 | 0.0 | 0.0 | 0.00 | 0.00 | 0.00 | 42 | 1015.1 |
| 20260504211426 | 85 | 90 | 1.7 | 2.6 | 0.00 | 0.00 | 0.00 | 43 | 1015.0 |
| 20260504210924 | 84 | 172 | 0.0 | 0.0 | 0.00 | 0.00 | 0.00 | 44 | 1015.0 |
| 20260504210420 | 85 | 151 | 0.0 | 0.9 | 0.00 | 0.00 | 0.00 | 42 | 1015.1 |
| 20260504205918 | 84 | 181 | 0.0 | 0.0 | 0.00 | 0.00 | 0.00 | 42 | 1015.2 |
| 20260504205415 | 85 | 164 | 0.0 | 0.0 | 0.00 | 0.00 | 0.00 | 43 | 1015.2 |
| 20260504204913 | 85 | 184 | 1.7 | 1.7 | 0.00 | 0.00 | 0.00 | 43 | 1015.0 |
| 20260504204411 | 85 | 182 | 0.0 | 0.9 | 0.00 | 0.00 | 0.00 | 43 | 1015.1 |
| 20260504203911 | 84 | 267 | 3.5 | 3.5 | 0.00 | 0.00 | 0.00 | 43 | 1015.2 |
| 20260504203407 | 84 | 161 | 0.9 | 0.9 | 0.00 | 0.00 | 0.00 | 44 | 1015.3 |
| 20260504202903 | 85 | 166 | 0.9 | 0.9 | 0.00 | 0.00 | 0.00 | 42 | 1015.2 |
| 20260504202400 | 85 | 173 | 0.0 | 0.9 | 0.00 | 0.00 | 0.00 | 43 | 1015.3 |
| 20260504201856 | 85 | 11 | 0.9 | 1.7 | 0.00 | 0.00 | 0.00 | 42 | 1015.3 |
| 20260504201354 | 85 | 132 | 1.7 | 2.6 | 0.00 | 0.00 | 0.00 | 40 | 1015.3 |
| 20260504200851 | 86 | 106 | 2.6 | 3.5 | 0.00 | 0.00 | 0.00 | 38 | 1015.6 |
| 20260504200348 | 86 | 167 | 0.9 | 1.7 | 0.00 | 0.00 | 0.00 | 39 | 1015.8 |
| 20260504195844 | 86 | 211 | 3.5 | 5.2 | 0.00 | 0.00 | 0.00 | 39 | 1015.6 |
| 20260504195340 | 86 | 259 | 3.5 | 3.5 | 0.00 | 0.00 | 0.00 | 40 | 1015.7 |
| 20260504194837 | 86 | 184 | 2.6 | 3.5 | 0.00 | 0.00 | 0.00 | 41 | 1015.7 |
| 20260504194333 | 86 | 327 | 1.7 | 2.6 | 0.00 | 0.00 | 0.00 | 39 | 1015.9 |
| 20260504193829 | 85 | 170 | 0.9 | 1.7 | 0.00 | 0.00 | 0.00 | 41 | 1015.9 |
| 20260504193327 | 85 | 285 | 5.2 | 7.8 | 0.00 | 0.00 | 0.00 | 43 | 1016.2 |
| 20260504192825 | 84 | 165 | 0.9 | 1.7 | 0.00 | 0.00 | 0.00 | 45 | 1016.3 |
| 20260504192323 | 84 | 175 | 1.7 | 1.7 | 0.00 | 0.00 | 0.00 | 43 | 1015.9 |
| 20260504191821 | 84 | 170 | 0.0 | 0.0 | 0.00 | 0.00 | 0.00 | 43 | 1016.0 |
| 20260504191318 | 83 | 102 | 0.9 | 1.7 | 0.00 | 0.00 | 0.00 | 44 | 1016.2 |
| 20260504190813 | 85 | 152 | 1.7 | 1.7 | 0.00 | 0.00 | 0.00 | 43 | 1016.3 |
| 20260504190310 | 85 | 166 | 0.0 | 0.0 | 0.00 | 0.00 | 0.00 | 46 | 1016.2 |
| 20260504185806 | 85 | 322 | 1.7 | 1.7 | 0.00 | 0.00 | 0.00 | 42 | 1016.5 |
| 20260504185304 | 85 | 109 | 1.7 | 2.6 | 0.00 | 0.00 | 0.00 | 42 | 1016.4 |
| 20260504184759 | 85 | 149 | 2.6 | 3.5 | 0.00 | 0.00 | 0.00 | 45 | 1016.4 |
| 20260504184255 | 86 | 197 | 0.0 | 0.0 | 0.00 | 0.00 | 0.00 | 43 | 1016.6 |
| 20260504183751 | 84 | 99 | 2.6 | 2.6 | 0.00 | 0.00 | 0.00 | 43 | 1016.8 |
| 20260504183248 | 84 | 168 | 0.0 | 0.0 | 0.00 | 0.00 | 0.00 | 45 | 1016.8 |
| 20260504182747 | 83 | 290 | 2.6 | 2.6 | 0.00 | 0.00 | 0.00 | 44 | 1016.9 |
| 20260504182243 | 84 | 161 | 0.0 | 0.0 | 0.00 | 0.00 | 0.00 | 45 | 1017.1 |
| 20260504181741 | 85 | 337 | 2.6 | 3.5 | 0.00 | 0.00 | 0.00 | 43 | 1017.0 |
| 20260504181238 | 86 | 193 | 3.5 | 5.2 | 0.00 | 0.00 | 0.00 | 42 | 1017.3 |
| 20260504180737 | 85 | 166 | 0.0 | 0.0 | 0.00 | 0.00 | 0.00 | 43 | 1017.4 |
| 20260504180236 | 86 | 152 | 0.9 | 0.9 | 0.00 | 0.00 | 0.00 | 44 | 1017.5 |
| 20260504175733 | 86 | 174 | 0.9 | 0.9 | 0.00 | 0.00 | 0.00 | 42 | 1017.4 |
| 20260504175229 | 84 | 171 | 1.7 | 1.7 | 0.00 | 0.00 | 0.00 | 45 | 1017.5 |
| 20260504174727 | 86 | 186 | 2.6 | 3.5 | 0.00 | 0.00 | 0.00 | 43 | 1017.5 |
| 20260504174225 | 82 | 164 | 0.9 | 0.9 | 0.00 | 0.00 | 0.00 | 45 | 1017.6 |
| 20260504173721 | 86 | 104 | 1.7 | 2.6 | 0.00 | 0.00 | 0.00 | 45 | 1017.6 |
| 20260504173218 | 85 | 172 | 1.7 | 2.6 | 0.00 | 0.00 | 0.00 | 45 | 1017.6 |
| 20260504172715 | 86 | 191 | 0.9 | 0.9 | 0.00 | 0.00 | 0.00 | 42 | 1017.7 |
| 20260504172211 | 85 | 326 | 2.6 | 5.2 | 0.00 | 0.00 | 0.00 | 44 | 1017.7 |
| 20260504171708 | 85 | 33 | 0.0 | 1.7 | 0.00 | 0.00 | 0.00 | 43 | 1017.7 |
| 20260504171205 | 86 | 113 | 0.9 | 1.7 | 0.00 | 0.00 | 0.00 | 42 | 1017.7 |
| 20260504170701 | 85 | 137 | 2.6 | 2.6 | 0.00 | 0.00 | 0.00 | 46 | 1017.7 |
| 20260504170159 | 84 | 178 | 1.7 | 1.7 | 0.00 | 0.00 | 0.00 | 46 | 1017.8 |
| 20260504160117 | 82 | 173 | 1.7 | 1.7 | 0.00 | 0.00 | 0.00 | 48 | 1018.5 |
| 20260504151045 | 79 | 175 | 0.0 | 0.9 | 0.00 | 0.00 | 0.00 | 55 | 1018.7 |
| 20260504150543 | 79 | 234 | 2.6 | 3.5 | 0.00 | 0.00 | 0.00 | 52 | 1018.7 |
| 20260504141009 | 76 | 126 | 4.3 | 7.0 | 0.00 | 0.00 | 0.00 | 63 | 1018.6 |
| 20260504140505 | 76 | 112 | 5.2 | 8.7 | 0.00 | 0.00 | 0.00 | 63 | 1018.5 |
| 20260504130430 | 73 | 246 | 2.6 | 2.6 | 0.00 | 0.00 | 0.00 | 71 | 1018.4 |
| 20260504110317 | 63 | 173 | 0.0 | 0.0 | 0.00 | 0.00 | 0.00 | 88 | 1017.6 |
| 20260504100234 | 63 | 241 | 0.9 | 2.6 | 0.00 | 0.00 | 0.00 | 88 | 1017.4 |
| 20260504081627 | 66 | 203 | 1.7 | 1.7 | 0.00 | 0.00 | 0.00 | 84 | 1017.1 |
| 20260504081123 | 66 | 184 | 1.7 | 1.7 | 0.00 | 0.00 | 0.00 | 84 | 1017.4 |
| 20260504080620 | 66 | 198 | 1.7 | 1.7 | 0.00 | 0.00 | 0.00 | 84 | 1017.3 |
| 20260504080116 | 66 | 176 | 0.0 | 0.0 | 0.00 | 0.00 | 0.00 | 85 | 1017.2 |